sensor_id;sensor_type;location;lat;lon;timestamp;temperature;humidity
65766;SHT31;52915;53.718;19.946;2022-07-06T00:00:39;16.47;78.61
65766;SHT31;52915;53.718;19.946;2022-07-06T00:05:44;16.37;78.71
65766;SHT31;52915;53.718;19.946;2022-07-06T00:10:48;16.40;78.69
65766;SHT31;52915;53.718;19.946;2022-07-06T00:15:52;16.38;78.81
65766;SHT31;52915;53.718;19.946;2022-07-06T00:20:57;16.37;78.79
65766;SHT31;52915;53.718;19.946;2022-07-06T00:26:01;16.36;78.77
65766;SHT31;52915;53.718;19.946;2022-07-06T00:31:06;16.28;78.82
65766;SHT31;52915;53.718;19.946;2022-07-06T00:36:11;16.19;79.06
65766;SHT31;52915;53.718;19.946;2022-07-06T00:41:15;16.11;79.50
65766;SHT31;52915;53.718;19.946;2022-07-06T00:46:19;16.02;79.82
65766;SHT31;52915;53.718;19.946;2022-07-06T00:51:32;15.89;79.74
65766;SHT31;52915;53.718;19.946;2022-07-06T00:56:41;15.71;79.92
65766;SHT31;52915;53.718;19.946;2022-07-06T01:01:45;15.57;80.13
65766;SHT31;52915;53.718;19.946;2022-07-06T01:06:50;15.64;79.92
65766;SHT31;52915;53.718;19.946;2022-07-06T01:11:54;15.67;79.88
65766;SHT31;52915;53.718;19.946;2022-07-06T01:16:59;15.66;79.87
65766;SHT31;52915;53.718;19.946;2022-07-06T01:22:03;15.69;79.77
65766;SHT31;52915;53.718;19.946;2022-07-06T01:27:07;15.58;80.26
65766;SHT31;52915;53.718;19.946;2022-07-06T01:32:12;15.60;80.42
65766;SHT31;52915;53.718;19.946;2022-07-06T01:37:16;15.62;80.37
65766;SHT31;52915;53.718;19.946;2022-07-06T01:42:20;15.64;80.11
65766;SHT31;52915;53.718;19.946;2022-07-06T01:47:24;15.52;80.39
65766;SHT31;52915;53.718;19.946;2022-07-06T01:52:28;15.49;80.28
65766;SHT31;52915;53.718;19.946;2022-07-06T01:57:33;15.49;80.19
65766;SHT31;52915;53.718;19.946;2022-07-06T02:02:37;15.47;80.32
65766;SHT31;52915;53.718;19.946;2022-07-06T02:07:41;15.36;80.83
65766;SHT31;52915;53.718;19.946;2022-07-06T02:12:46;15.33;80.75
65766;SHT31;52915;53.718;19.946;2022-07-06T02:17:50;15.33;80.78
65766;SHT31;52915;53.718;19.946;2022-07-06T02:22:55;15.31;80.94
65766;SHT31;52915;53.718;19.946;2022-07-06T02:27:59;15.26;80.94
65766;SHT31;52915;53.718;19.946;2022-07-06T02:33:03;15.16;81.24
65766;SHT31;52915;53.718;19.946;2022-07-06T02:38:08;15.12;81.27
65766;SHT31;52915;53.718;19.946;2022-07-06T02:43:13;15.08;81.53
65766;SHT31;52915;53.718;19.946;2022-07-06T02:48:18;15.10;81.39
65766;SHT31;52915;53.718;19.946;2022-07-06T02:53:25;15.15;81.08
65766;SHT31;52915;53.718;19.946;2022-07-06T02:58:29;15.12;80.88
65766;SHT31;52915;53.718;19.946;2022-07-06T03:03:34;15.14;80.87
65766;SHT31;52915;53.718;19.946;2022-07-06T03:08:38;15.17;80.81
65766;SHT31;52915;53.718;19.946;2022-07-06T03:13:42;15.12;81.05
65766;SHT31;52915;53.718;19.946;2022-07-06T03:18:46;15.05;81.44
65766;SHT31;52915;53.718;19.946;2022-07-06T03:23:51;15.08;81.65
65766;SHT31;52915;53.718;19.946;2022-07-06T03:28:56;15.16;81.75
65766;SHT31;52915;53.718;19.946;2022-07-06T03:34:00;15.29;81.77
65766;SHT31;52915;53.718;19.946;2022-07-06T03:39:05;15.32;82.14
65766;SHT31;52915;53.718;19.946;2022-07-06T03:44:09;15.38;82.22
65766;SHT31;52915;53.718;19.946;2022-07-06T03:49:13;15.50;82.07
65766;SHT31;52915;53.718;19.946;2022-07-06T03:54:18;15.59;82.29
65766;SHT31;52915;53.718;19.946;2022-07-06T03:59:22;15.72;82.14
65766;SHT31;52915;53.718;19.946;2022-07-06T04:04:26;15.80;82.10
65766;SHT31;52915;53.718;19.946;2022-07-06T04:09:30;15.88;82.00
65766;SHT31;52915;53.718;19.946;2022-07-06T04:14:34;15.93;81.87
65766;SHT31;52915;53.718;19.946;2022-07-06T04:19:39;16.07;81.46
65766;SHT31;52915;53.718;19.946;2022-07-06T04:24:43;16.22;81.56
65766;SHT31;52915;53.718;19.946;2022-07-06T04:29:47;16.42;81.19
65766;SHT31;52915;53.718;19.946;2022-07-06T04:34:51;16.53;80.84
65766;SHT31;52915;53.718;19.946;2022-07-06T04:39:57;16.65;80.54
65766;SHT31;52915;53.718;19.946;2022-07-06T04:45:04;16.78;79.90
65766;SHT31;52915;53.718;19.946;2022-07-06T04:50:09;16.84;79.53
65766;SHT31;52915;53.718;19.946;2022-07-06T04:55:15;17.00;78.79
65766;SHT31;52915;53.718;19.946;2022-07-06T05:00:20;17.09;78.67
65766;SHT31;52915;53.718;19.946;2022-07-06T05:05:25;17.16;78.63
65766;SHT31;52915;53.718;19.946;2022-07-06T05:10:29;17.37;78.47
65766;SHT31;52915;53.718;19.946;2022-07-06T05:15:34;17.68;77.60
65766;SHT31;52915;53.718;19.946;2022-07-06T05:20:39;17.85;77.21
65766;SHT31;52915;53.718;19.946;2022-07-06T05:25:43;18.02;76.78
65766;SHT31;52915;53.718;19.946;2022-07-06T05:30:47;18.29;75.65
65766;SHT31;52915;53.718;19.946;2022-07-06T05:35:52;18.60;73.89
65766;SHT31;52915;53.718;19.946;2022-07-06T05:40:57;18.79;72.99
65766;SHT31;52915;53.718;19.946;2022-07-06T05:46:01;19.05;71.78
65766;SHT31;52915;53.718;19.946;2022-07-06T05:51:05;19.29;70.40
65766;SHT31;52915;53.718;19.946;2022-07-06T05:56:10;19.47;70.22
65766;SHT31;52915;53.718;19.946;2022-07-06T06:01:14;19.62;69.29
65766;SHT31;52915;53.718;19.946;2022-07-06T06:06:19;19.70;68.93
65766;SHT31;52915;53.718;19.946;2022-07-06T06:11:23;19.87;68.61
65766;SHT31;52915;53.718;19.946;2022-07-06T06:16:27;20.05;66.80
65766;SHT31;52915;53.718;19.946;2022-07-06T06:21:32;20.17;65.68
65766;SHT31;52915;53.718;19.946;2022-07-06T06:26:36;20.32;64.85
65766;SHT31;52915;53.718;19.946;2022-07-06T06:31:41;20.44;64.00
65766;SHT31;52915;53.718;19.946;2022-07-06T06:36:46;20.51;63.83
65766;SHT31;52915;53.718;19.946;2022-07-06T06:41:51;20.65;63.83
65766;SHT31;52915;53.718;19.946;2022-07-06T06:46:55;20.86;63.41
65766;SHT31;52915;53.718;19.946;2022-07-06T06:52:03;20.95;61.40
65766;SHT31;52915;53.718;19.946;2022-07-06T06:57:34;21.03;60.70
65766;SHT31;52915;53.718;19.946;2022-07-06T07:02:38;21.20;60.53
65766;SHT31;52915;53.718;19.946;2022-07-06T07:07:42;21.36;59.51
65766;SHT31;52915;53.718;19.946;2022-07-06T07:12:47;21.39;58.96
65766;SHT31;52915;53.718;19.946;2022-07-06T07:17:51;21.58;59.03
65766;SHT31;52915;53.718;19.946;2022-07-06T07:22:56;21.81;58.03
65766;SHT31;52915;53.718;19.946;2022-07-06T07:28:01;22.11;58.40
65766;SHT31;52915;53.718;19.946;2022-07-06T07:33:05;22.41;57.47
65766;SHT31;52915;53.718;19.946;2022-07-06T07:38:10;22.61;55.85
65766;SHT31;52915;53.718;19.946;2022-07-06T07:43:14;22.95;55.83
65766;SHT31;52915;53.718;19.946;2022-07-06T07:48:18;23.17;54.39
65766;SHT31;52915;53.718;19.946;2022-07-06T07:53:24;23.32;54.06
65766;SHT31;52915;53.718;19.946;2022-07-06T07:58:28;23.52;54.15
65766;SHT31;52915;53.718;19.946;2022-07-06T08:03:32;23.69;52.76
65766;SHT31;52915;53.718;19.946;2022-07-06T08:08:37;23.77;52.71
65766;SHT31;52915;53.718;19.946;2022-07-06T08:13:41;23.47;51.63
65766;SHT31;52915;53.718;19.946;2022-07-06T08:18:45;23.40;52.57
65766;SHT31;52915;53.718;19.946;2022-07-06T08:23:50;23.52;51.85
65766;SHT31;52915;53.718;19.946;2022-07-06T08:28:55;23.70;49.62
65766;SHT31;52915;53.718;19.946;2022-07-06T08:34:00;23.42;48.82
65766;SHT31;52915;53.718;19.946;2022-07-06T08:39:05;23.56;50.28
65766;SHT31;52915;53.718;19.946;2022-07-06T08:44:11;23.96;49.01
65766;SHT31;52915;53.718;19.946;2022-07-06T08:49:16;24.18;48.93
65766;SHT31;52915;53.718;19.946;2022-07-06T08:54:23;24.33;48.92
65766;SHT31;52915;53.718;19.946;2022-07-06T08:59:31;24.57;48.77
65766;SHT31;52915;53.718;19.946;2022-07-06T09:04:37;24.78;46.44
65766;SHT31;52915;53.718;19.946;2022-07-06T09:09:46;25.00;46.19
65766;SHT31;52915;53.718;19.946;2022-07-06T09:14:50;25.32;45.34
65766;SHT31;52915;53.718;19.946;2022-07-06T09:19:56;25.42;44.87
65766;SHT31;52915;53.718;19.946;2022-07-06T09:25:01;25.41;43.39
65766;SHT31;52915;53.718;19.946;2022-07-06T09:30:27;25.36;44.26
65766;SHT31;52915;53.718;19.946;2022-07-06T09:35:36;25.63;43.91
65766;SHT31;52915;53.718;19.946;2022-07-06T09:40:42;25.54;42.83
65766;SHT31;52915;53.718;19.946;2022-07-06T09:45:52;25.83;42.48
65766;SHT31;52915;53.718;19.946;2022-07-06T09:51:00;26.02;41.65
65766;SHT31;52915;53.718;19.946;2022-07-06T09:56:10;25.98;40.94
65766;SHT31;52915;53.718;19.946;2022-07-06T10:01:26;26.48;40.40
65766;SHT31;52915;53.718;19.946;2022-07-06T10:06:32;26.80;40.29
65766;SHT31;52915;53.718;19.946;2022-07-06T10:11:38;26.79;40.70
65766;SHT31;52915;53.718;19.946;2022-07-06T10:17:01;26.24;40.36
65766;SHT31;52915;53.718;19.946;2022-07-06T10:22:08;25.63;41.23
65766;SHT31;52915;53.718;19.946;2022-07-06T10:27:13;25.18;42.56
65766;SHT31;52915;53.718;19.946;2022-07-06T10:32:19;24.73;43.49
65766;SHT31;52915;53.718;19.946;2022-07-06T10:37:27;24.28;44.01
65766;SHT31;52915;53.718;19.946;2022-07-06T10:48:15;23.33;46.01
65766;SHT31;52915;53.718;19.946;2022-07-06T10:53:17;23.11;46.99
65766;SHT31;52915;53.718;19.946;2022-07-06T11:09:07;24.38;47.92
65766;SHT31;52915;53.718;19.946;2022-07-06T11:14:13;24.38;47.10
65766;SHT31;52915;53.718;19.946;2022-07-06T11:19:21;24.28;46.91
65766;SHT31;52915;53.718;19.946;2022-07-06T11:24:28;24.07;46.80
65766;SHT31;52915;53.718;19.946;2022-07-06T11:29:35;23.84;46.77
65766;SHT31;52915;53.718;19.946;2022-07-06T11:34:43;24.03;46.74
65766;SHT31;52915;53.718;19.946;2022-07-06T11:39:51;24.11;46.65
65766;SHT31;52915;53.718;19.946;2022-07-06T11:44:57;23.73;46.69
65766;SHT31;52915;53.718;19.946;2022-07-06T11:50:01;23.82;47.33
65766;SHT31;52915;53.718;19.946;2022-07-06T11:55:09;24.19;47.28
65766;SHT31;52915;53.718;19.946;2022-07-06T12:00:20;24.03;46.60
65766;SHT31;52915;53.718;19.946;2022-07-06T12:05:36;23.90;46.92
65766;SHT31;52915;53.718;19.946;2022-07-06T12:11:10;23.58;46.22
65766;SHT31;52915;53.718;19.946;2022-07-06T12:16:32;23.31;47.18
65766;SHT31;52915;53.718;19.946;2022-07-06T12:21:44;23.43;47.39
65766;SHT31;52915;53.718;19.946;2022-07-06T12:26:52;23.93;47.01
65766;SHT31;52915;53.718;19.946;2022-07-06T12:32:03;24.28;46.46
65766;SHT31;52915;53.718;19.946;2022-07-06T12:37:16;24.01;47.25
65766;SHT31;52915;53.718;19.946;2022-07-06T12:42:23;23.86;46.68
65766;SHT31;52915;53.718;19.946;2022-07-06T12:47:28;24.00;47.03
65766;SHT31;52915;53.718;19.946;2022-07-06T12:52:32;24.53;47.69
65766;SHT31;52915;53.718;19.946;2022-07-06T12:57:44;24.28;47.40
65766;SHT31;52915;53.718;19.946;2022-07-06T13:02:52;23.79;47.35
65766;SHT31;52915;53.718;19.946;2022-07-06T13:08:13;23.28;47.95
65766;SHT31;52915;53.718;19.946;2022-07-06T13:13:17;23.04;48.90
65766;SHT31;52915;53.718;19.946;2022-07-06T13:18:22;23.61;49.24
65766;SHT31;52915;53.718;19.946;2022-07-06T13:23:27;23.70;48.10
65766;SHT31;52915;53.718;19.946;2022-07-06T13:28:32;23.72;47.83
65766;SHT31;52915;53.718;19.946;2022-07-06T13:33:38;23.83;48.12
65766;SHT31;52915;53.718;19.946;2022-07-06T13:38:42;24.53;48.30
65766;SHT31;52915;53.718;19.946;2022-07-06T13:43:47;24.83;46.99
65766;SHT31;52915;53.718;19.946;2022-07-06T13:48:51;24.28;47.02
65766;SHT31;52915;53.718;19.946;2022-07-06T13:53:58;23.66;47.47
65766;SHT31;52915;53.718;19.946;2022-07-06T13:59:05;23.22;48.71
65766;SHT31;52915;53.718;19.946;2022-07-06T14:04:10;22.63;51.51
65766;SHT31;52915;53.718;19.946;2022-07-06T14:09:16;22.06;54.47
65766;SHT31;52915;53.718;19.946;2022-07-06T14:14:21;21.51;57.81
65766;SHT31;52915;53.718;19.946;2022-07-06T14:19:28;21.04;60.40
65766;SHT31;52915;53.718;19.946;2022-07-06T14:24:32;20.77;62.19
65766;SHT31;52915;53.718;19.946;2022-07-06T14:29:38;20.72;63.61
65766;SHT31;52915;53.718;19.946;2022-07-06T14:34:43;20.84;63.29
65766;SHT31;52915;53.718;19.946;2022-07-06T14:39:48;20.97;63.24
65766;SHT31;52915;53.718;19.946;2022-07-06T14:44:53;21.03;62.65
65766;SHT31;52915;53.718;19.946;2022-07-06T14:49:57;21.13;61.81
65766;SHT31;52915;53.718;19.946;2022-07-06T14:55:02;21.50;61.31
65766;SHT31;52915;53.718;19.946;2022-07-06T15:00:15;21.64;59.96
65766;SHT31;52915;53.718;19.946;2022-07-06T15:05:21;21.62;59.74
65766;SHT31;52915;53.718;19.946;2022-07-06T15:10:26;21.40;62.35
65766;SHT31;52915;53.718;19.946;2022-07-06T15:15:30;21.11;63.07
65766;SHT31;52915;53.718;19.946;2022-07-06T15:20:55;21.04;60.43
65766;SHT31;52915;53.718;19.946;2022-07-06T15:26:01;21.02;60.56
65766;SHT31;52915;53.718;19.946;2022-07-06T15:31:06;20.95;60.19
65766;SHT31;52915;53.718;19.946;2022-07-06T15:36:11;20.95;59.80
65766;SHT31;52915;53.718;19.946;2022-07-06T15:41:15;21.15;59.53
65766;SHT31;52915;53.718;19.946;2022-07-06T15:46:19;21.33;58.98
65766;SHT31;52915;53.718;19.946;2022-07-06T15:51:25;21.27;58.54
65766;SHT31;52915;53.718;19.946;2022-07-06T15:56:32;21.02;57.06
65766;SHT31;52915;53.718;19.946;2022-07-06T16:01:37;20.72;57.30
65766;SHT31;52915;53.718;19.946;2022-07-06T16:06:41;20.47;56.63
65766;SHT31;52915;53.718;19.946;2022-07-06T16:12:06;20.30;57.24
65766;SHT31;52915;53.718;19.946;2022-07-06T16:17:11;20.23;57.51
65766;SHT31;52915;53.718;19.946;2022-07-06T16:22:16;20.08;57.60
65766;SHT31;52915;53.718;19.946;2022-07-06T16:27:20;19.94;57.70
65766;SHT31;52915;53.718;19.946;2022-07-06T16:32:24;19.88;58.00
65766;SHT31;52915;53.718;19.946;2022-07-06T16:37:29;19.79;58.97
65766;SHT31;52915;53.718;19.946;2022-07-06T16:42:34;19.69;59.47
65766;SHT31;52915;53.718;19.946;2022-07-06T16:47:39;19.54;59.69
65766;SHT31;52915;53.718;19.946;2022-07-06T16:52:44;19.36;61.18
65766;SHT31;52915;53.718;19.946;2022-07-06T16:57:48;19.07;61.99
65766;SHT31;52915;53.718;19.946;2022-07-06T17:09:43;18.99;63.26
65766;SHT31;52915;53.718;19.946;2022-07-06T17:15:15;19.03;62.70
65766;SHT31;52915;53.718;19.946;2022-07-06T17:20:19;19.12;62.78
65766;SHT31;52915;53.718;19.946;2022-07-06T17:25:24;19.31;62.96
65766;SHT31;52915;53.718;19.946;2022-07-06T17:30:29;19.55;62.85
65766;SHT31;52915;53.718;19.946;2022-07-06T17:35:36;19.58;62.67
65766;SHT31;52915;53.718;19.946;2022-07-06T17:40:43;19.56;62.72
65766;SHT31;52915;53.718;19.946;2022-07-06T17:45:49;19.60;63.08
65766;SHT31;52915;53.718;19.946;2022-07-06T17:50:54;19.42;64.17
65766;SHT31;52915;53.718;19.946;2022-07-06T17:56:01;19.36;62.07
65766;SHT31;52915;53.718;19.946;2022-07-06T18:01:07;19.24;60.58
65766;SHT31;52915;53.718;19.946;2022-07-06T18:06:12;19.07;59.72
65766;SHT31;52915;53.718;19.946;2022-07-06T18:11:16;18.94;59.46
65766;SHT31;52915;53.718;19.946;2022-07-06T18:16:21;18.78;59.89
65766;SHT31;52915;53.718;19.946;2022-07-06T18:21:26;18.65;60.09
65766;SHT31;52915;53.718;19.946;2022-07-06T18:26:31;18.53;60.36
65766;SHT31;52915;53.718;19.946;2022-07-06T18:31:36;18.42;60.74
65766;SHT31;52915;53.718;19.946;2022-07-06T18:36:42;18.32;61.07
65766;SHT31;52915;53.718;19.946;2022-07-06T18:41:46;18.20;61.33
65766;SHT31;52915;53.718;19.946;2022-07-06T18:46:56;18.07;61.74
65766;SHT31;52915;53.718;19.946;2022-07-06T18:52:01;17.91;62.25
65766;SHT31;52915;53.718;19.946;2022-07-06T18:57:06;17.72;63.04
65766;SHT31;52915;53.718;19.946;2022-07-06T19:02:14;17.50;63.96
65766;SHT31;52915;53.718;19.946;2022-07-06T19:07:19;17.29;65.04
65766;SHT31;52915;53.718;19.946;2022-07-06T19:12:28;17.14;65.56
65766;SHT31;52915;53.718;19.946;2022-07-06T19:17:35;17.02;65.82
65766;SHT31;52915;53.718;19.946;2022-07-06T19:22:42;17.05;64.98
65766;SHT31;52915;53.718;19.946;2022-07-06T19:27:50;17.05;65.00
65766;SHT31;52915;53.718;19.946;2022-07-06T19:32:56;16.95;65.72
65766;SHT31;52915;53.718;19.946;2022-07-06T19:38:00;16.96;65.66
65766;SHT31;52915;53.718;19.946;2022-07-06T19:43:05;16.96;65.25
65766;SHT31;52915;53.718;19.946;2022-07-06T19:48:09;16.94;65.21
65766;SHT31;52915;53.718;19.946;2022-07-06T19:53:14;16.86;65.63
65766;SHT31;52915;53.718;19.946;2022-07-06T19:58:19;16.79;66.07
65766;SHT31;52915;53.718;19.946;2022-07-06T20:03:24;16.63;66.99
65766;SHT31;52915;53.718;19.946;2022-07-06T20:08:29;16.50;67.32
65766;SHT31;52915;53.718;19.946;2022-07-06T20:13:34;16.46;67.47
65766;SHT31;52915;53.718;19.946;2022-07-06T20:18:39;16.47;67.61
65766;SHT31;52915;53.718;19.946;2022-07-06T20:23:50;16.43;67.82
65766;SHT31;52915;53.718;19.946;2022-07-06T20:28:54;16.29;68.04
65766;SHT31;52915;53.718;19.946;2022-07-06T20:33:59;16.14;68.26
65766;SHT31;52915;53.718;19.946;2022-07-06T20:39:04;15.96;68.98
65766;SHT31;52915;53.718;19.946;2022-07-06T20:44:08;15.78;69.54
65766;SHT31;52915;53.718;19.946;2022-07-06T20:49:13;15.74;69.87
65766;SHT31;52915;53.718;19.946;2022-07-06T20:54:24;15.77;70.00
65766;SHT31;52915;53.718;19.946;2022-07-06T20:59:28;15.71;70.54
65766;SHT31;52915;53.718;19.946;2022-07-06T21:04:33;15.61;70.77
65766;SHT31;52915;53.718;19.946;2022-07-06T21:09:37;15.50;71.02
65766;SHT31;52915;53.718;19.946;2022-07-06T21:14:42;15.39;71.31
65766;SHT31;52915;53.718;19.946;2022-07-06T21:19:46;15.32;71.46
65766;SHT31;52915;53.718;19.946;2022-07-06T21:24:50;15.28;71.65
65766;SHT31;52915;53.718;19.946;2022-07-06T21:29:55;15.19;71.92
65766;SHT31;52915;53.718;19.946;2022-07-06T21:34:59;15.06;72.31
65766;SHT31;52915;53.718;19.946;2022-07-06T21:40:03;14.93;72.61
65766;SHT31;52915;53.718;19.946;2022-07-06T21:45:09;14.85;72.79
65766;SHT31;52915;53.718;19.946;2022-07-06T21:50:13;14.79;73.00
65766;SHT31;52915;53.718;19.946;2022-07-06T21:55:18;14.66;73.50
65766;SHT31;52915;53.718;19.946;2022-07-06T22:00:22;14.54;73.79
65766;SHT31;52915;53.718;19.946;2022-07-06T22:05:27;14.39;74.00
65766;SHT31;52915;53.718;19.946;2022-07-06T22:10:34;14.30;74.25
65766;SHT31;52915;53.718;19.946;2022-07-06T22:15:39;14.24;74.51
65766;SHT31;52915;53.718;19.946;2022-07-06T22:20:43;14.19;74.70
65766;SHT31;52915;53.718;19.946;2022-07-06T22:25:48;14.12;74.92
65766;SHT31;52915;53.718;19.946;2022-07-06T22:30:52;14.04;75.32
65766;SHT31;52915;53.718;19.946;2022-07-06T22:35:56;13.99;75.49
65766;SHT31;52915;53.718;19.946;2022-07-06T22:41:00;13.92;75.74
65766;SHT31;52915;53.718;19.946;2022-07-06T22:46:06;13.84;76.29
65766;SHT31;52915;53.718;19.946;2022-07-06T22:51:15;13.73;76.78
65766;SHT31;52915;53.718;19.946;2022-07-06T22:56:20;13.72;76.64
65766;SHT31;52915;53.718;19.946;2022-07-06T23:01:25;13.68;76.90
65766;SHT31;52915;53.718;19.946;2022-07-06T23:06:29;13.61;77.12
65766;SHT31;52915;53.718;19.946;2022-07-06T23:11:34;13.59;77.32
65766;SHT31;52915;53.718;19.946;2022-07-06T23:16:38;13.56;77.43
65766;SHT31;52915;53.718;19.946;2022-07-06T23:21:43;13.50;77.71
65766;SHT31;52915;53.718;19.946;2022-07-06T23:26:47;13.48;77.79
65766;SHT31;52915;53.718;19.946;2022-07-06T23:31:51;13.47;77.80
65766;SHT31;52915;53.718;19.946;2022-07-06T23:36:55;13.41;78.00
65766;SHT31;52915;53.718;19.946;2022-07-06T23:41:59;13.33;78.30
65766;SHT31;52915;53.718;19.946;2022-07-06T23:47:04;13.31;78.54
65766;SHT31;52915;53.718;19.946;2022-07-06T23:52:08;13.24;78.75
65766;SHT31;52915;53.718;19.946;2022-07-06T23:57:13;13.20;78.90
